createdAt,value
2023-04-10T00:00:57.403Z,3.56
2023-04-10T00:03:24.967Z,3.50
2023-04-10T00:05:54.578Z,3.49
2023-04-10T00:08:25.971Z,3.40
2023-04-10T00:10:54.541Z,3.39
2023-04-10T00:13:21.163Z,3.35
2023-04-10T00:15:47.975Z,3.33
2023-04-10T00:18:14.609Z,3.35
2023-04-10T00:20:41.897Z,3.32
2023-04-10T00:23:08.599Z,3.32
2023-04-10T00:25:35.426Z,3.28
2023-04-10T00:28:02.060Z,3.19
2023-04-10T00:30:28.706Z,3.19
2023-04-10T00:32:55.412Z,3.23
2023-04-10T00:35:22.105Z,3.21
2023-04-10T00:37:50.338Z,3.21
2023-04-10T00:40:17.012Z,3.13
2023-04-10T00:42:43.683Z,3.09
2023-04-10T00:45:10.868Z,3.02
2023-04-10T00:47:37.807Z,3.09
2023-04-10T00:50:05.429Z,3.13
2023-04-10T00:52:32.386Z,3.15
2023-04-10T00:54:59.052Z,3.13
2023-04-10T00:57:27.169Z,3.11
2023-04-10T00:59:54.087Z,3.08
2023-04-10T01:02:21.000Z,3.05
2023-04-10T01:04:47.887Z,3.08
2023-04-10T01:07:56.017Z,3.04
2023-04-10T01:10:34.480Z,3.04
2023-04-10T01:13:23.265Z,3.00
2023-04-10T01:15:54.754Z,2.97
2023-04-10T01:18:39.819Z,2.97
2023-04-10T01:21:09.350Z,2.97
2023-04-10T01:23:51.307Z,3.00
2023-04-10T01:26:18.105Z,2.97
2023-04-10T01:29:07.244Z,2.92
2023-04-10T01:31:37.821Z,2.91
2023-04-10T01:34:25.647Z,2.88
2023-04-10T01:36:55.543Z,2.83
2023-04-10T01:39:22.737Z,2.81
2023-04-10T01:41:51.944Z,2.83
2023-04-10T01:44:19.095Z,2.74
2023-04-10T01:46:46.521Z,2.74
2023-04-10T01:49:13.279Z,2.73
2023-04-10T01:51:39.899Z,2.71
2023-04-10T01:54:07.224Z,2.74
2023-04-10T01:56:33.995Z,2.68
2023-04-10T01:59:00.655Z,2.63
2023-04-10T02:01:30.123Z,2.65
2023-04-10T02:03:58.690Z,2.63
2023-04-10T02:07:03.669Z,2.63
2023-04-10T02:09:47.988Z,2.65
2023-04-10T02:12:50.590Z,2.65
2023-04-10T02:15:17.351Z,2.64
2023-04-10T02:17:44.084Z,2.57
2023-04-10T02:20:10.833Z,2.54
2023-04-10T02:22:37.485Z,2.53
2023-04-10T02:25:04.819Z,2.53
2023-04-10T02:27:33.135Z,2.52
2023-04-10T02:30:00.188Z,2.52
2023-04-10T02:32:27.428Z,2.53
2023-04-10T02:34:54.230Z,2.53
2023-04-10T02:37:20.897Z,2.46
2023-04-10T02:39:47.605Z,2.42
2023-04-10T02:42:14.312Z,2.40
2023-04-10T02:44:41.272Z,2.40
2023-04-10T02:47:08.237Z,2.34
2023-04-10T02:49:35.108Z,2.29
2023-04-10T02:52:02.343Z,2.25
2023-04-10T02:54:29.022Z,2.16
2023-04-10T02:56:57.493Z,2.15
2023-04-10T02:59:24.145Z,2.16
2023-04-10T03:01:51.013Z,2.15
2023-04-10T03:04:18.013Z,2.11
2023-04-10T03:06:44.774Z,2.15
2023-04-10T03:09:11.410Z,2.11
2023-04-10T03:11:38.198Z,2.08
2023-04-10T03:14:04.984Z,2.02
2023-04-10T03:16:31.746Z,1.97
2023-04-10T03:18:58.511Z,1.99
2023-04-10T03:21:25.173Z,1.95
2023-04-10T03:23:52.598Z,1.91
2023-04-10T03:26:19.452Z,1.92
2023-04-10T03:28:46.086Z,1.95
2023-04-10T03:31:12.785Z,1.94
2023-04-10T03:33:39.553Z,1.97
2023-04-10T03:36:06.936Z,1.98
2023-04-10T03:38:33.600Z,1.94
2023-04-10T03:41:00.226Z,1.97
2023-04-10T03:43:26.893Z,1.92
2023-04-10T03:45:53.522Z,1.89
2023-04-10T03:48:20.142Z,1.91
2023-04-10T03:50:46.813Z,1.91
2023-04-10T03:53:13.519Z,1.92
2023-04-10T03:55:41.173Z,1.98
2023-04-10T03:58:08.292Z,2.01
2023-04-10T04:00:34.949Z,2.04
2023-04-10T04:03:03.280Z,2.09
2023-04-10T04:05:30.956Z,2.11
2023-04-10T04:07:57.637Z,2.11
2023-04-10T04:10:24.410Z,2.09
2023-04-10T04:12:51.132Z,2.13
2023-04-10T04:15:17.883Z,2.19
2023-04-10T04:17:46.341Z,2.22
2023-04-10T04:20:13.102Z,2.23
2023-04-10T04:22:39.775Z,2.36
2023-04-10T04:25:10.749Z,2.42
2023-04-10T04:27:37.713Z,2.49
2023-04-10T04:30:04.981Z,2.57
2023-04-10T04:32:31.676Z,2.68
2023-04-10T04:34:58.344Z,2.84
2023-04-10T04:37:25.070Z,2.91
2023-04-10T04:39:51.724Z,2.98
2023-04-10T04:42:18.459Z,3.00
2023-04-10T04:44:45.147Z,3.05
2023-04-10T04:47:11.959Z,3.16
2023-04-10T04:49:38.673Z,3.29
2023-04-10T04:52:05.663Z,3.42
2023-04-10T04:54:32.331Z,3.56
2023-04-10T04:56:58.984Z,3.70
2023-04-10T04:59:25.740Z,3.86
2023-04-10T05:01:52.485Z,3.99
2023-04-10T05:04:20.721Z,4.14
2023-04-10T05:06:47.467Z,4.38
2023-04-10T05:09:14.137Z,4.60
2023-04-10T05:11:41.127Z,4.83
2023-04-10T05:14:07.899Z,5.01
2023-04-10T05:16:34.563Z,5.24
2023-04-10T05:19:01.396Z,5.41
2023-04-10T05:21:28.037Z,5.56
2023-04-10T05:23:54.819Z,5.76
2023-04-10T05:26:21.495Z,5.83
2023-04-10T05:28:48.235Z,6.07
2023-04-10T05:31:14.931Z,6.41
2023-04-10T05:33:41.655Z,6.71
2023-04-10T05:36:08.678Z,7.06
2023-04-10T05:38:35.973Z,7.35
2023-04-10T05:41:02.610Z,7.47
2023-04-10T05:43:29.217Z,7.34
2023-04-10T05:45:56.136Z,7.28
2023-04-10T05:48:26.188Z,7.34
2023-04-10T05:50:52.930Z,7.41
2023-04-10T05:53:19.935Z,7.55
2023-04-10T05:55:51.424Z,7.75
2023-04-10T05:58:18.081Z,7.90
2023-04-10T06:00:44.742Z,7.87
2023-04-10T06:03:11.516Z,7.79
2023-04-10T06:05:38.242Z,7.27
2023-04-10T06:08:04.986Z,7.27
2023-04-10T06:10:32.133Z,7.32
2023-04-10T06:12:58.770Z,7.30
2023-04-10T06:15:25.389Z,7.08
2023-04-10T06:17:52.095Z,7.00
2023-04-10T06:20:18.925Z,7.06
2023-04-10T06:22:45.960Z,7.23
2023-04-10T06:25:12.820Z,7.34
2023-04-10T06:27:39.544Z,7.44
2023-04-10T06:30:06.953Z,7.50
2023-04-10T06:32:33.648Z,7.61
2023-04-10T06:35:00.729Z,7.66
2023-04-10T06:37:33.359Z,7.83
2023-04-10T06:40:07.847Z,7.85
2023-04-10T06:42:34.851Z,7.89
2023-04-10T06:45:01.491Z,7.66
2023-04-10T06:47:28.322Z,7.79
2023-04-10T06:49:54.981Z,7.99
2023-04-10T06:52:21.642Z,8.10
2023-04-10T06:54:48.358Z,8.09
2023-04-10T06:57:16.089Z,8.13
2023-04-10T06:59:42.998Z,7.94
2023-04-10T07:02:09.744Z,7.82
2023-04-10T07:04:36.841Z,7.79
2023-04-10T07:07:03.850Z,7.76
2023-04-10T07:09:30.791Z,7.55
2023-04-10T07:11:57.478Z,7.48
2023-04-10T07:14:24.152Z,7.52
2023-04-10T07:16:51.324Z,7.45
2023-04-10T07:19:18.051Z,7.44
2023-04-10T07:21:44.754Z,7.47
2023-04-10T07:24:11.619Z,7.43
2023-04-10T07:26:38.257Z,7.37
2023-04-10T07:29:04.868Z,7.34
2023-04-10T07:31:31.563Z,7.35
2023-04-10T07:33:58.280Z,7.37
2023-04-10T07:36:24.961Z,7.32
2023-04-10T07:38:51.703Z,7.37
2023-04-10T07:41:18.566Z,7.38
2023-04-10T07:43:46.109Z,7.48
2023-04-10T07:46:12.786Z,7.66
2023-04-10T07:48:39.478Z,7.75
2023-04-10T07:51:09.285Z,7.72
2023-04-10T07:53:36.830Z,7.78
2023-04-10T07:56:03.564Z,7.92
2023-04-10T07:58:31.154Z,7.90
2023-04-10T08:00:57.884Z,7.75
2023-04-10T08:03:24.761Z,7.90
2023-04-10T08:05:51.762Z,7.97
2023-04-10T08:08:18.430Z,8.06
2023-04-10T08:10:45.158Z,8.07
2023-04-10T08:13:11.802Z,8.02
2023-04-10T08:15:38.573Z,8.06
2023-04-10T08:18:05.530Z,8.16
2023-04-10T08:20:36.958Z,8.20
2023-04-10T08:23:17.338Z,8.02
2023-04-10T08:25:46.842Z,7.87
2023-04-10T08:28:13.549Z,8.00
2023-04-10T08:30:40.177Z,8.19
2023-04-10T08:33:06.878Z,8.30
2023-04-10T08:35:33.570Z,8.29
2023-04-10T08:38:12.250Z,8.16
2023-04-10T08:40:40.603Z,8.10
2023-04-10T08:43:07.242Z,8.24
2023-04-10T08:45:33.959Z,8.27
2023-04-10T08:48:02.680Z,8.30
2023-04-10T08:50:29.807Z,8.21
2023-04-10T08:52:56.530Z,8.13
2023-04-10T08:55:23.271Z,8.13
2023-04-10T08:58:00.571Z,8.13
2023-04-10T09:00:28.600Z,8.04
2023-04-10T09:02:58.343Z,8.06
2023-04-10T09:05:28.610Z,8.07
2023-04-10T09:07:55.341Z,8.09
2023-04-10T09:10:22.094Z,8.12
2023-04-10T09:12:48.838Z,8.16
2023-04-10T09:15:15.778Z,8.13
2023-04-10T09:17:58.651Z,8.21
2023-04-10T09:20:26.121Z,8.27
2023-04-10T09:22:52.994Z,8.36
2023-04-10T09:25:40.718Z,8.30
2023-04-10T09:28:08.502Z,8.23
2023-04-10T09:30:42.362Z,8.13
2023-04-10T09:33:27.487Z,8.09
2023-04-10T09:35:54.440Z,7.93
2023-04-10T09:38:21.666Z,7.82
2023-04-10T09:40:48.459Z,7.72
2023-04-10T09:43:22.076Z,7.65
2023-04-10T09:45:56.588Z,7.65
2023-04-10T09:48:24.240Z,7.69
2023-04-10T09:50:51.458Z,7.75
2023-04-10T09:53:19.693Z,7.82
2023-04-10T09:55:47.354Z,7.85
2023-04-10T09:58:14.244Z,7.83
2023-04-10T10:00:47.251Z,7.79
2023-04-10T10:03:15.205Z,7.64
2023-04-10T10:05:48.605Z,7.62
2023-04-10T10:08:15.830Z,7.61
2023-04-10T10:10:50.937Z,7.55
2023-04-10T10:13:32.651Z,7.48
2023-04-10T10:16:20.680Z,7.43
2023-04-10T10:19:08.407Z,7.41
2023-04-10T10:21:35.188Z,7.24
2023-04-10T10:24:01.913Z,7.25
2023-04-10T10:26:32.537Z,7.37
2023-04-10T10:28:59.266Z,7.40
2023-04-10T10:31:26.020Z,7.47
2023-04-10T10:33:52.996Z,7.59
2023-04-10T10:36:20.336Z,7.64
2023-04-10T10:39:19.222Z,7.68
2023-04-10T10:42:24.478Z,7.76
2023-04-10T10:45:10.873Z,7.75
2023-04-10T10:47:49.802Z,7.72
2023-04-10T10:50:16.457Z,7.79
2023-04-10T10:52:57.407Z,7.78
2023-04-10T10:55:36.772Z,7.68
2023-04-10T10:58:09.799Z,7.75
2023-04-10T11:00:51.820Z,7.82
2023-04-10T11:03:18.499Z,7.89
2023-04-10T11:05:59.168Z,8.03
2023-04-10T11:08:44.112Z,7.89
2023-04-10T11:11:10.827Z,7.94
2023-04-10T11:13:41.183Z,8.02
2023-04-10T11:16:10.570Z,7.97
2023-04-10T11:18:47.321Z,7.97
2023-04-10T11:21:22.853Z,8.02
2023-04-10T11:23:58.433Z,7.85
2023-04-10T11:26:38.257Z,7.82
2023-04-10T11:29:20.023Z,7.85
2023-04-10T11:31:59.836Z,7.87
2023-04-10T11:34:30.968Z,7.85
2023-04-10T11:36:57.669Z,7.85
2023-04-10T11:39:24.309Z,7.75
2023-04-10T11:41:51.917Z,7.68
2023-04-10T11:44:26.529Z,7.66
2023-04-10T11:46:53.252Z,7.69
2023-04-10T11:49:21.444Z,7.66
2023-04-10T11:51:48.702Z,7.69
2023-04-10T11:54:19.859Z,7.68
2023-04-10T11:56:58.227Z,7.69
2023-04-10T11:59:25.087Z,7.78
2023-04-10T12:01:54.293Z,7.86
2023-04-10T12:04:22.365Z,7.87
2023-04-10T12:06:52.842Z,7.90
2023-04-10T12:09:20.419Z,7.87
2023-04-10T12:11:53.243Z,7.87
2023-04-10T12:14:20.975Z,7.85
2023-04-10T12:16:47.887Z,7.75
2023-04-10T12:19:14.985Z,7.65
2023-04-10T12:21:44.365Z,7.62
2023-04-10T12:24:11.322Z,7.68
2023-04-10T12:26:38.081Z,7.72
2023-04-10T12:29:06.436Z,7.83
2023-04-10T12:31:35.558Z,7.89
2023-04-10T12:34:03.059Z,7.79
2023-04-10T12:36:30.571Z,7.89
2023-04-10T12:38:58.123Z,8.02
2023-04-10T12:41:26.381Z,8.17
2023-04-10T12:43:53.710Z,8.27
2023-04-10T12:46:28.357Z,8.34
2023-04-10T12:48:56.147Z,8.37
2023-04-10T12:51:50.116Z,8.45
2023-04-10T12:54:30.517Z,8.54
2023-04-10T12:56:57.807Z,8.61
2023-04-10T12:59:25.034Z,8.37
2023-04-10T13:01:51.737Z,8.40
2023-04-10T13:04:18.950Z,8.41
2023-04-10T13:06:46.047Z,8.37
2023-04-10T13:09:13.405Z,8.40
2023-04-10T13:11:40.709Z,8.42
2023-04-10T13:14:07.557Z,8.51
2023-04-10T13:16:34.486Z,8.58
2023-04-10T13:19:01.639Z,8.58
2023-04-10T13:21:28.720Z,8.60
2023-04-10T13:23:58.582Z,8.61
2023-04-10T13:26:25.510Z,8.64
2023-04-10T13:28:52.204Z,8.57
2023-04-10T13:31:18.942Z,8.64
2023-04-10T13:33:48.188Z,8.62
2023-04-10T13:36:15.460Z,8.68
2023-04-10T13:38:42.198Z,8.62
2023-04-10T13:41:09.017Z,8.51
2023-04-10T13:43:36.506Z,8.44
2023-04-10T13:46:03.225Z,8.30
2023-04-10T13:48:37.211Z,8.29
2023-04-10T13:51:06.810Z,8.27
2023-04-10T13:53:33.498Z,8.24
2023-04-10T13:56:00.343Z,8.23
2023-04-10T13:58:30.756Z,8.27
2023-04-10T14:00:57.507Z,8.30
2023-04-10T14:03:24.214Z,8.27
2023-04-10T14:05:52.711Z,8.26
2023-04-10T14:08:19.577Z,8.14
2023-04-10T14:10:50.721Z,8.07
2023-04-10T14:13:17.880Z,7.94
2023-04-10T14:15:44.950Z,7.96
2023-04-10T14:18:11.645Z,8.00
2023-04-10T14:20:39.054Z,7.99
2023-04-10T14:23:05.858Z,7.97
2023-04-10T14:25:32.517Z,7.99
2023-04-10T14:27:59.831Z,7.93
2023-04-10T14:30:31.016Z,7.96
2023-04-10T14:32:57.980Z,7.99
2023-04-10T14:35:24.734Z,7.97
2023-04-10T14:37:51.432Z,8.04
2023-04-10T14:40:18.102Z,8.12
2023-04-10T14:42:45.949Z,8.27
2023-04-10T14:45:12.615Z,8.20
2023-04-10T14:47:39.367Z,8.24
2023-04-10T14:50:06.902Z,8.33
2023-04-10T14:52:33.623Z,8.27
2023-04-10T14:55:00.362Z,8.29
2023-04-10T14:57:27.151Z,8.34
2023-04-10T14:59:53.796Z,8.45
2023-04-10T15:02:21.003Z,8.14
2023-04-10T15:04:47.732Z,8.04
2023-04-10T15:07:14.684Z,8.12
2023-04-10T15:09:41.383Z,8.21
2023-04-10T15:12:08.026Z,8.21
2023-04-10T15:14:34.775Z,8.24
2023-04-10T15:17:01.589Z,8.36
2023-04-10T15:19:28.350Z,8.48
2023-04-10T15:21:55.365Z,8.55
2023-04-10T15:24:21.984Z,8.40
2023-04-10T15:26:48.671Z,8.37
2023-04-10T15:29:15.369Z,8.30
2023-04-10T15:31:41.996Z,7.97
2023-04-10T15:34:09.283Z,7.89
2023-04-10T15:36:36.066Z,7.93
2023-04-10T15:39:06.051Z,7.96
2023-04-10T15:41:33.175Z,7.96
2023-04-10T15:43:59.963Z,7.97
2023-04-10T15:46:27.293Z,7.99
2023-04-10T15:48:54.064Z,8.02
2023-04-10T15:51:20.864Z,8.04
2023-04-10T15:53:47.453Z,7.99
2023-04-10T15:56:16.115Z,7.94
2023-04-10T15:58:42.700Z,7.87
2023-04-10T16:01:09.352Z,7.85
2023-04-10T16:03:36.174Z,7.85
2023-04-10T16:06:03.235Z,7.86
2023-04-10T16:08:30.054Z,7.89
2023-04-10T16:10:56.737Z,7.81
2023-04-10T16:13:23.404Z,7.78
2023-04-10T16:15:50.458Z,7.75
2023-04-10T16:18:17.127Z,7.71
2023-04-10T16:20:43.842Z,7.65
2023-04-10T16:23:10.553Z,7.58
2023-04-10T16:25:37.170Z,7.43
2023-04-10T16:28:08.252Z,7.41
2023-04-10T16:30:35.601Z,7.38
2023-04-10T16:33:03.006Z,7.28
2023-04-10T16:35:30.166Z,7.25
2023-04-10T16:37:56.795Z,7.23
2023-04-10T16:40:23.544Z,7.27
2023-04-10T16:42:50.286Z,7.27
2023-04-10T16:45:16.976Z,7.23
2023-04-10T16:47:44.619Z,7.28
2023-04-10T16:50:11.696Z,6.96
2023-04-10T16:52:38.385Z,6.86
2023-04-10T16:55:05.468Z,6.86
2023-04-10T16:57:32.928Z,6.89
2023-04-10T16:59:59.929Z,6.89
2023-04-10T17:02:27.086Z,6.92
2023-04-10T17:04:57.276Z,6.96
2023-04-10T17:07:24.180Z,6.97
2023-04-10T17:09:51.057Z,6.96
2023-04-10T17:12:17.883Z,6.92
2023-04-10T17:14:44.658Z,6.92
2023-04-10T17:17:11.446Z,6.86
2023-04-10T17:19:38.707Z,6.79
2023-04-10T17:22:13.798Z,6.56
2023-04-10T17:24:40.468Z,6.39
2023-04-10T17:27:07.163Z,6.35
2023-04-10T17:29:38.657Z,6.24
2023-04-10T17:32:06.716Z,6.11
2023-04-10T17:34:33.720Z,6.09
2023-04-10T17:37:00.690Z,6.17
2023-04-10T17:39:27.947Z,6.22
2023-04-10T17:41:54.686Z,6.27
2023-04-10T17:44:21.373Z,6.38
2023-04-10T17:46:48.306Z,6.41
2023-04-10T17:49:15.012Z,6.42
2023-04-10T17:51:42.029Z,6.34
2023-04-10T17:54:08.889Z,6.37
2023-04-10T17:56:35.666Z,6.39
2023-04-10T17:59:02.887Z,6.34
2023-04-10T18:01:31.017Z,6.37
2023-04-10T18:03:59.161Z,6.38
2023-04-10T18:06:26.428Z,6.44
2023-04-10T18:08:53.480Z,6.44
2023-04-10T18:11:20.396Z,6.41
2023-04-10T18:13:47.080Z,6.39
2023-04-10T18:16:13.934Z,6.42
2023-04-10T18:18:42.338Z,6.39
2023-04-10T18:21:10.773Z,6.44
2023-04-10T18:23:38.040Z,6.53
2023-04-10T18:26:04.690Z,6.50
2023-04-10T18:28:31.315Z,6.52
2023-04-10T18:30:58.553Z,6.46
2023-04-10T18:33:25.878Z,6.46
2023-04-10T18:35:57.227Z,6.39
2023-04-10T18:38:24.564Z,6.46
2023-04-10T18:40:54.220Z,6.46
2023-04-10T18:43:20.916Z,6.50
2023-04-10T18:45:47.657Z,6.49
2023-04-10T18:48:14.328Z,6.55
2023-04-10T18:50:41.143Z,6.55
2023-04-10T18:53:07.824Z,6.55
2023-04-10T18:55:34.413Z,6.53
2023-04-10T18:58:01.066Z,6.56
2023-04-10T19:00:27.760Z,6.56
2023-04-10T19:02:55.300Z,6.53
2023-04-10T19:05:22.057Z,6.42
2023-04-10T19:08:00.565Z,6.34
2023-04-10T19:10:27.929Z,6.27
2023-04-10T19:12:56.231Z,6.31
2023-04-10T19:15:23.760Z,6.22
2023-04-10T19:17:53.935Z,6.20
2023-04-10T19:20:52.398Z,6.13
2023-04-10T19:23:07.747Z,6.10
2023-04-10T19:25:34.449Z,6.06
2023-04-10T19:28:01.227Z,6.14
2023-04-10T19:30:28.507Z,6.17
2023-04-10T19:32:55.893Z,6.01
2023-04-10T19:35:22.790Z,5.93
2023-04-10T19:37:49.905Z,5.83
2023-04-10T19:40:18.119Z,5.85
2023-04-10T19:42:44.959Z,5.83
2023-04-10T19:45:12.387Z,5.74
2023-04-10T19:47:39.077Z,5.70
2023-04-10T19:50:06.093Z,5.74
2023-04-10T19:52:32.744Z,5.74
2023-04-10T19:54:59.508Z,5.83
2023-04-10T19:57:26.159Z,5.76
2023-04-10T19:59:52.830Z,5.81
2023-04-10T20:02:19.651Z,5.83
2023-04-10T20:04:48.541Z,5.89
2023-04-10T20:07:15.492Z,5.90
2023-04-10T20:09:42.187Z,5.76
2023-04-10T20:12:09.244Z,5.79
2023-04-10T20:14:35.882Z,5.87
2023-04-10T20:17:02.570Z,5.85
2023-04-10T20:19:29.374Z,5.87
2023-04-10T20:21:56.089Z,5.96
2023-04-10T20:24:22.833Z,6.00
2023-04-10T20:26:49.505Z,5.96
2023-04-10T20:29:16.340Z,6.00
2023-04-10T20:31:43.131Z,5.93
2023-04-10T20:34:09.837Z,5.93
2023-04-10T20:36:36.608Z,5.85
2023-04-10T20:39:03.236Z,5.87
2023-04-10T20:41:29.896Z,5.89
2023-04-10T20:43:57.504Z,5.86
2023-04-10T20:46:27.078Z,5.83
2023-04-10T20:48:59.203Z,5.83
2023-04-10T20:51:27.450Z,5.77
2023-04-10T20:53:54.259Z,5.74
2023-04-10T20:56:24.928Z,5.70
2023-04-10T20:58:56.888Z,5.65
2023-04-10T21:01:23.571Z,5.65
2023-04-10T21:03:50.602Z,5.58
2023-04-10T21:06:18.275Z,5.48
2023-04-10T21:08:44.939Z,5.45
2023-04-10T21:11:11.555Z,5.42
2023-04-10T21:13:38.632Z,5.43
2023-04-10T21:16:06.445Z,5.55
2023-04-10T21:18:33.139Z,5.53
2023-04-10T21:20:59.766Z,5.53
2023-04-10T21:23:26.467Z,5.45
2023-04-10T21:25:53.167Z,5.43
2023-04-10T21:28:19.915Z,5.52
2023-04-10T21:30:46.664Z,5.46
2023-04-10T21:33:13.472Z,5.41
2023-04-10T21:35:42.728Z,5.38
2023-04-10T21:38:09.489Z,5.41
2023-04-10T21:40:36.244Z,5.42
2023-04-10T21:43:03.312Z,5.46
2023-04-10T21:45:34.726Z,5.42
2023-04-10T21:48:01.834Z,5.43
2023-04-10T21:50:28.636Z,5.39
2023-04-10T21:52:55.394Z,5.35
2023-04-10T21:55:22.054Z,5.31
2023-04-10T21:57:48.758Z,5.30
2023-04-10T22:00:16.954Z,5.34
2023-04-10T22:02:44.405Z,5.31
2023-04-10T22:05:12.702Z,5.34
2023-04-10T22:07:39.334Z,5.31
2023-04-10T22:10:07.942Z,5.30
2023-04-10T22:12:34.550Z,5.32
2023-04-10T22:15:01.218Z,5.32
2023-04-10T22:17:27.916Z,5.27
2023-04-10T22:19:54.621Z,5.28
2023-04-10T22:22:21.329Z,5.32
2023-04-10T22:24:47.976Z,5.32
2023-04-10T22:27:14.610Z,5.35
2023-04-10T22:29:45.303Z,5.42
2023-04-10T22:32:14.294Z,5.43
2023-04-10T22:34:41.073Z,5.46
2023-04-10T22:37:07.752Z,5.48
2023-04-10T22:39:34.427Z,5.49
2023-04-10T22:42:01.027Z,5.52
2023-04-10T22:44:27.686Z,5.52
2023-04-10T22:46:54.350Z,5.48
2023-04-10T22:49:21.128Z,5.45
2023-04-10T22:51:47.825Z,5.36
2023-04-10T22:54:16.019Z,5.36
2023-04-10T22:56:44.200Z,5.32
2023-04-10T22:59:10.981Z,5.35
2023-04-10T23:01:37.830Z,5.27
2023-04-10T23:04:04.547Z,5.10
2023-04-10T23:06:32.530Z,5.04
2023-04-10T23:08:59.200Z,4.94
2023-04-10T23:11:25.892Z,4.90
2023-04-10T23:13:52.598Z,4.91
2023-04-10T23:16:19.311Z,4.93
2023-04-10T23:18:46.043Z,4.87
2023-04-10T23:21:12.660Z,4.81
2023-04-10T23:23:39.328Z,4.69
2023-04-10T23:26:06.380Z,4.62
2023-04-10T23:28:33.002Z,4.66
2023-04-10T23:30:59.718Z,4.59
2023-04-10T23:33:26.372Z,4.62
2023-04-10T23:35:53.065Z,4.67
2023-04-10T23:38:19.850Z,4.66
2023-04-10T23:40:46.508Z,4.66
2023-04-10T23:43:13.201Z,4.62
2023-04-10T23:45:39.883Z,4.57
2023-04-10T23:48:07.513Z,4.63
2023-04-10T23:50:34.218Z,4.63
2023-04-10T23:53:01.982Z,4.63
2023-04-10T23:55:28.615Z,4.60
2023-04-10T23:57:55.247Z,4.56
